Time;durP1;ratioP1;P1;durP2;ratioP2;P2;SDS_P1;SDS_P2;PMS_P1;PMS_P2;Temp;Humidity;BMP_temperature;BMP_pressure;BME280_temperature;BME280_humidity;BME280_pressure;Samples;Min_cycle;Max_cycle;Signal;HPM_P1;HPM_P2
2022/01/10 00:00:34;;;;;;;13.05;3.40;;;2.70;99.90;;;;;;4955410;28;20165;-71
2022/01/10 00:03:02;;;;;;;22.85;2.97;;;2.70;99.90;;;;;;4953589;28;20038;-70
2022/01/10 00:05:30;;;;;;;11.48;2.97;;;2.70;99.90;;;;;;4956167;28;20042;-71
2022/01/10 00:07:56;;;;;;;14.50;3.55;;;2.70;99.90;;;;;;4956221;28;20043;-70
2022/01/10 00:10:22;;;;;;;15.63;3.50;;;2.60;99.90;;;;;;4946188;28;20035;-70
2022/01/10 00:12:48;;;;;;;14.63;3.58;;;2.60;99.90;;;;;;4955856;28;20043;-71
2022/01/10 00:15:16;;;;;;;21.13;4.20;;;2.70;99.90;;;;;;4951415;28;20066;-70
2022/01/10 00:17:45;;;;;;;12.57;3.28;;;2.60;99.90;;;;;;4958637;28;20137;-70
2022/01/10 00:20:14;;;;;;;22.33;4.00;;;2.60;99.90;;;;;;4957019;28;20520;-70
2022/01/10 00:22:45;;;;;;;19.70;3.15;;;2.60;99.90;;;;;;4963551;28;20419;-70
2022/01/10 00:25:10;;;;;;;15.98;3.47;;;2.60;99.90;;;;;;4952917;28;20464;-71
2022/01/10 00:27:36;;;;;;;16.77;4.67;;;2.60;99.90;;;;;;4959333;28;20050;-70
2022/01/10 00:30:02;;;;;;;18.27;4.27;;;2.50;99.90;;;;;;4958349;28;20286;-73
2022/01/10 00:32:28;;;;;;;17.75;3.78;;;2.50;99.90;;;;;;4968656;28;20043;-72
2022/01/10 00:34:53;;;;;;;16.47;3.57;;;2.50;99.90;;;;;;4953063;28;20043;-72
2022/01/10 00:37:19;;;;;;;21.10;3.83;;;2.50;99.90;;;;;;4946942;28;20054;-73
2022/01/10 00:39:47;;;;;;;18.20;3.70;;;2.40;99.90;;;;;;4952616;28;20043;-74
2022/01/10 00:42:13;;;;;;;11.18;3.95;;;2.40;99.90;;;;;;4941026;28;20046;-73
2022/01/10 00:44:44;;;;;;;15.52;3.72;;;2.40;99.90;;;;;;4946261;28;20065;-72
2022/01/10 00:47:10;;;;;;;15.57;2.80;;;2.40;99.90;;;;;;4952589;28;20054;-73
2022/01/10 00:49:38;;;;;;;16.47;3.00;;;2.40;99.90;;;;;;4949491;28;20074;-72
2022/01/10 00:52:04;;;;;;;12.60;3.47;;;2.30;99.90;;;;;;4958782;28;20114;-72
2022/01/10 00:54:30;;;;;;;15.68;3.20;;;2.30;99.90;;;;;;4955622;28;20039;-72
2022/01/10 00:56:55;;;;;;;15.80;4.03;;;2.30;99.90;;;;;;4956305;28;20175;-72
2022/01/10 00:59:21;;;;;;;12.17;5.03;;;2.20;99.90;;;;;;4945188;28;20039;-72
2022/01/10 01:01:47;;;;;;;14.07;3.47;;;2.20;99.90;;;;;;4948687;28;20070;-72
2022/01/10 01:04:14;;;;;;;16.07;3.10;;;2.20;99.90;;;;;;4956095;28;20081;-72
2022/01/10 01:06:40;;;;;;;11.35;3.13;;;2.20;99.90;;;;;;4949893;28;20233;-70
2022/01/10 01:09:09;;;;;;;20.03;4.50;;;2.20;99.90;;;;;;4955477;28;20083;-70
2022/01/10 01:14:07;;;;;;;12.60;3.50;;;2.20;99.90;;;;;;4958194;28;20126;-70
2022/01/10 01:24:31;;;;;;;13.27;4.35;;;2.30;99.90;;;;;;4953327;28;20051;-70
2022/01/10 01:26:57;;;;;;;17.20;3.67;;;2.20;99.90;;;;;;4959517;28;20054;-70
2022/01/10 01:29:25;;;;;;;15.70;4.80;;;2.20;99.90;;;;;;4955049;28;20558;-70
2022/01/10 01:31:51;;;;;;;12.35;4.20;;;2.10;99.90;;;;;;4950919;28;20100;-69
2022/01/10 01:34:18;;;;;;;10.52;3.25;;;2.10;99.90;;;;;;4952217;28;20361;-70
2022/01/10 01:36:50;;;;;;;;;;;2.10;99.90;;;;;;4952614;28;20479;-70
2022/01/10 01:39:22;;;;;;;9.32;3.50;;;2.10;99.90;;;;;;4954466;28;20763;-70
2022/01/10 01:41:50;;;;;;;10.05;3.47;;;2.10;99.90;;;;;;4951247;28;20089;-70
2022/01/10 01:44:16;;;;;;;18.27;5.25;;;2.00;99.90;;;;;;4957292;28;20089;-70
2022/01/10 01:46:42;;;;;;;13.83;3.60;;;2.00;99.90;;;;;;4954967;28;20046;-70
2022/01/10 01:49:10;;;;;;;15.32;4.78;;;2.00;99.90;;;;;;4960288;28;20225;-70
2022/01/10 01:51:36;;;;;;;13.77;4.18;;;2.00;99.90;;;;;;4957058;28;20117;-70
2022/01/10 01:54:03;;;;;;;13.23;4.73;;;1.90;99.90;;;;;;4957399;28;20050;-73
2022/01/10 01:56:29;;;;;;;13.23;4.65;;;1.90;99.90;;;;;;4959257;28;20305;-69
2022/01/10 01:58:55;;;;;;;22.57;4.30;;;1.90;99.90;;;;;;4957603;28;20038;-70
2022/01/10 02:01:22;;;;;;;14.73;4.43;;;1.90;99.90;;;;;;4956835;28;20043;-70
2022/01/10 02:03:48;;;;;;;14.25;4.47;;;1.80;99.90;;;;;;4956062;28;20613;-69
2022/01/10 02:06:14;;;;;;;11.23;3.70;;;1.80;99.90;;;;;;4950679;28;20062;-69
2022/01/10 02:08:49;;;;;;;14.47;4.70;;;1.80;99.90;;;;;;4976831;28;20047;-69
2022/01/10 02:11:16;;;;;;;15.45;3.53;;;1.80;99.90;;;;;;4957008;28;20050;-69
2022/01/10 02:13:42;;;;;;;13.80;4.68;;;1.70;99.90;;;;;;4963254;28;20058;-69
2022/01/10 02:16:10;;;;;;;;;;;1.70;99.90;;;;;;4958514;28;20137;-69
2022/01/10 02:18:36;;;;;;;10.73;4.10;;;1.60;99.90;;;;;;4958544;28;19997;-69
2022/01/10 02:21:05;;;;;;;9.18;3.63;;;1.60;99.90;;;;;;4954170;28;20697;-69
2022/01/10 02:23:31;;;;;;;14.02;4.35;;;1.60;99.90;;;;;;4957007;28;21361;-69
2022/01/10 02:25:57;;;;;;;12.32;3.97;;;1.50;99.90;;;;;;4957501;28;20175;-69
2022/01/10 02:28:24;;;;;;;15.05;3.92;;;1.50;99.90;;;;;;4947015;28;20589;-69
2022/01/10 02:30:55;;;;;;;14.48;4.32;;;1.50;99.90;;;;;;4949012;28;20039;-70
2022/01/10 02:33:22;;;;;;;10.68;3.60;;;1.40;99.90;;;;;;4949172;28;20043;-69
2022/01/10 02:36:18;;;;;;;9.40;4.28;;;1.40;99.90;;;;;;4950709;28;20047;-69
2022/01/10 02:38:33;;;;;;;10.98;3.67;;;1.40;99.90;;;;;;4948387;28;20054;-70
2022/01/10 02:40:59;;;;;;;11.87;4.10;;;1.30;99.90;;;;;;4946319;28;20042;-69
2022/01/10 02:43:25;;;;;;;19.25;3.55;;;1.30;99.90;;;;;;4955184;28;20043;-69
2022/01/10 02:45:51;;;;;;;13.27;3.70;;;1.20;99.90;;;;;;4959258;28;20424;-70
2022/01/10 02:48:17;;;;;;;9.00;4.13;;;1.20;99.90;;;;;;4950346;28;21069;-70
2022/01/10 02:50:42;;;;;;;17.83;4.43;;;1.30;99.90;;;;;;4956023;28;20551;-70
2022/01/10 02:53:08;;;;;;;14.33;5.03;;;1.30;99.90;;;;;;4960477;28;20248;-71
2022/01/10 02:55:33;;;;;;;16.47;5.20;;;1.30;99.90;;;;;;4957149;28;20519;-72
2022/01/10 02:57:59;;;;;;;23.23;5.87;;;1.30;99.90;;;;;;4973123;28;20051;-69
2022/01/10 03:00:26;;;;;;;16.57;4.53;;;1.40;99.90;;;;;;4962509;28;20101;-69
2022/01/10 03:02:54;;;;;;;18.65;4.07;;;1.40;99.90;;;;;;4961348;28;20293;-69
2022/01/10 03:05:22;;;;;;;18.73;5.55;;;1.50;99.90;;;;;;4962817;28;20502;-69
2022/01/10 03:07:53;;;;;;;18.00;5.47;;;1.50;99.90;;;;;;4957620;28;20077;-69
2022/01/10 03:10:19;;;;;;;16.95;5.97;;;1.50;99.90;;;;;;4958278;28;20396;-69
2022/01/10 03:12:45;;;;;;;21.80;6.53;;;1.50;99.90;;;;;;4959689;28;20073;-69
2022/01/10 03:15:11;;;;;;;16.77;5.00;;;1.50;99.90;;;;;;4962555;28;20259;-69
2022/01/10 03:17:37;;;;;;;;;;;1.50;99.90;;;;;;4964821;28;20492;-69
2022/01/10 03:20:08;;;;;;;15.45;5.38;;;1.40;99.90;;;;;;4963641;28;19968;-69
2022/01/10 03:22:33;;;;;;;21.17;6.28;;;1.40;99.90;;;;;;4945274;28;20451;-70
2022/01/10 03:24:59;;;;;;;21.50;6.87;;;1.40;99.90;;;;;;4956260;28;20043;-70
2022/01/10 03:27:25;;;;;;;23.53;5.73;;;1.30;99.90;;;;;;4963722;28;20038;-70
2022/01/10 03:29:52;;;;;;;12.10;5.17;;;1.30;99.90;;;;;;4968734;28;20046;-69
2022/01/10 03:32:19;;;;;;;21.80;5.00;;;1.30;99.90;;;;;;4964790;28;20239;-70
2022/01/10 03:34:44;;;;;;;18.67;6.72;;;1.20;99.90;;;;;;4949829;28;20074;-69
2022/01/10 03:37:10;;;;;;;18.90;6.23;;;1.20;99.90;;;;;;4961083;28;20085;-69
2022/01/10 03:39:36;;;;;;;19.00;5.70;;;1.20;99.90;;;;;;4962967;28;20544;-70
2022/01/10 03:42:02;;;;;;;15.57;5.20;;;1.20;99.90;;;;;;4963925;28;20057;-69
2022/01/10 03:44:28;;;;;;;13.80;5.20;;;1.20;99.90;;;;;;4965732;28;20065;-70
2022/01/10 03:46:56;;;;;;;13.87;6.23;;;1.10;99.90;;;;;;4961838;28;20219;-69
2022/01/10 03:49:22;;;;;;;18.35;5.55;;;1.10;99.90;;;;;;4958720;28;20298;-69
2022/01/10 03:51:48;;;;;;;22.67;7.15;;;1.10;99.90;;;;;;4968933;28;20448;-69
2022/01/10 03:54:17;;;;;;;17.43;6.57;;;1.00;99.90;;;;;;4964683;28;20031;-70
2022/01/10 03:56:43;;;;;;;14.45;6.10;;;1.00;99.90;;;;;;4966951;28;20146;-69
2022/01/10 03:59:09;;;;;;;16.50;5.73;;;1.00;99.90;;;;;;4960480;28;20134;-69
2022/01/10 04:01:38;;;;;;;20.23;6.20;;;1.00;99.90;;;;;;4964248;28;20663;-69
2022/01/10 04:04:04;;;;;;;18.33;6.32;;;1.00;99.90;;;;;;4959626;28;20042;-69
2022/01/10 04:06:30;;;;;;;18.58;7.32;;;1.10;99.90;;;;;;4957587;28;20054;-69
2022/01/10 04:08:55;;;;;;;19.03;6.47;;;1.00;99.90;;;;;;4964624;28;20038;-70
2022/01/10 04:11:21;;;;;;;21.77;8.73;;;1.00;99.90;;;;;;4962852;28;20047;-69
2022/01/10 04:13:46;;;;;;;22.80;6.53;;;1.00;99.90;;;;;;4959632;28;20611;-69
2022/01/10 04:16:12;;;;;;;20.08;7.78;;;1.00;99.90;;;;;;4964685;28;20485;-71
2022/01/10 04:18:38;;;;;;;25.97;7.47;;;1.00;99.90;;;;;;4961749;28;20039;-72
2022/01/10 04:21:04;;;;;;;18.37;7.70;;;0.90;99.90;;;;;;4985917;28;20089;-71
2022/01/10 04:23:30;;;;;;;17.43;7.50;;;0.90;99.90;;;;;;4955308;28;20500;-72
2022/01/10 04:25:56;;;;;;;19.02;6.53;;;0.80;99.90;;;;;;4955201;28;20406;-71
2022/01/10 04:28:22;;;;;;;24.87;7.53;;;0.80;99.90;;;;;;4957965;28;20046;-72
2022/01/10 04:30:48;;;;;;;17.50;7.07;;;0.90;99.90;;;;;;4965377;28;20554;-69
2022/01/10 04:33:17;;;;;;;16.13;6.93;;;0.90;99.90;;;;;;4959861;28;20062;-69
2022/01/10 04:35:43;;;;;;;13.23;6.53;;;0.90;99.90;;;;;;4961882;28;20408;-69
2022/01/10 04:38:10;;;;;;;15.80;7.25;;;0.90;99.90;;;;;;4964087;28;20046;-70
2022/01/10 04:40:36;;;;;;;17.42;7.32;;;0.90;99.90;;;;;;4937201;28;20046;-69
2022/01/10 04:43:01;;;;;;;21.03;6.63;;;0.90;99.90;;;;;;4958662;28;20050;-69
2022/01/10 04:45:27;;;;;;;17.27;7.30;;;0.80;99.90;;;;;;4964915;28;20294;-70
2022/01/10 04:47:52;;;;;;;18.87;7.20;;;0.80;99.90;;;;;;4963269;28;20534;-69
2022/01/10 04:52:48;;;;;;;21.23;8.02;;;0.90;99.90;;;;;;4958589;28;20047;-69
2022/01/10 04:55:14;;;;;;;15.95;7.18;;;0.80;99.90;;;;;;4961318;28;20043;-70
2022/01/10 04:57:40;;;;;;;21.38;7.43;;;0.80;99.90;;;;;;4958682;28;20049;-70
2022/01/10 05:00:09;;;;;;;18.77;8.30;;;0.90;99.90;;;;;;4963169;28;20039;-70
2022/01/10 05:02:36;;;;;;;18.00;7.38;;;0.80;99.90;;;;;;4958960;28;20229;-69
2022/01/10 05:05:02;;;;;;;21.13;7.90;;;0.80;99.90;;;;;;4958002;28;20039;-69
2022/01/10 05:07:28;;;;;;;18.75;7.90;;;0.80;99.90;;;;;;4960087;28;20043;-70
2022/01/10 05:09:54;;;;;;;18.00;7.80;;;0.80;99.90;;;;;;4964719;28;20035;-69
2022/01/10 05:12:22;;;;;;;22.43;9.30;;;0.80;99.90;;;;;;4964959;28;20082;-70
2022/01/10 05:14:48;;;;;;;18.52;7.95;;;0.80;99.90;;;;;;4962166;28;20436;-70
2022/01/10 05:17:13;;;;;;;22.23;9.00;;;0.80;99.90;;;;;;4960604;28;20057;-69
2022/01/10 05:19:39;;;;;;;27.43;9.50;;;0.80;99.90;;;;;;4967183;28;20515;-70
2022/01/10 05:22:05;;;;;;;20.97;9.27;;;0.80;99.90;;;;;;4964360;28;20125;-70
2022/01/10 05:24:30;;;;;;;23.13;8.90;;;0.80;99.90;;;;;;4964973;28;20047;-69
2022/01/10 05:26:56;;;;;;;22.40;8.73;;;0.80;99.90;;;;;;4958142;28;20125;-70
2022/01/10 05:29:21;;;;;;;19.33;8.90;;;0.80;99.90;;;;;;4960038;28;20035;-70
2022/01/10 05:31:47;;;;;;;22.77;10.07;;;0.80;99.90;;;;;;4959404;28;20346;-69
2022/01/10 05:34:12;;;;;;;20.80;9.67;;;0.80;99.90;;;;;;4955113;28;20345;-70
2022/01/10 05:36:38;;;;;;;22.40;8.93;;;0.80;99.90;;;;;;4963010;28;20073;-70
2022/01/10 05:39:07;;;;;;;21.42;9.38;;;0.80;99.90;;;;;;4962921;28;20055;-69
2022/01/10 05:41:34;;;;;;;22.75;9.07;;;0.80;99.90;;;;;;4965709;28;20046;-69
2022/01/10 05:43:59;;;;;;;28.83;9.13;;;0.80;99.90;;;;;;4962262;28;20043;-69
2022/01/10 05:46:25;;;;;;;20.63;10.27;;;0.70;99.90;;;;;;4965918;28;20039;-70
2022/01/10 05:48:53;;;;;;;24.10;9.48;;;0.80;99.90;;;;;;4960840;28;20067;-70
2022/01/10 05:51:20;;;;;;;21.67;9.43;;;0.70;99.90;;;;;;4947644;28;20044;-70
2022/01/10 05:53:49;;;;;;;29.75;11.27;;;0.70;99.90;;;;;;4957907;28;20047;-70
2022/01/10 05:56:15;;;;;;;22.80;9.73;;;0.70;99.90;;;;;;4949612;28;20045;-70
2022/01/10 05:58:41;;;;;;;21.60;10.10;;;0.70;99.90;;;;;;4961001;28;20050;-70
2022/01/10 06:01:07;;;;;;;21.33;10.27;;;0.70;99.90;;;;;;4961863;28;20039;-69
2022/01/10 06:03:32;;;;;;;22.87;9.83;;;0.60;99.90;;;;;;4955115;28;20503;-70
2022/01/10 06:05:58;;;;;;;31.50;11.70;;;0.70;99.90;;;;;;4955979;28;20482;-70
2022/01/10 06:08:23;;;;;;;20.87;9.83;;;0.60;99.90;;;;;;4960542;28;20417;-69
2022/01/10 06:10:49;;;;;;;25.77;11.23;;;0.60;99.90;;;;;;4955006;28;20321;-69
2022/01/10 06:13:14;;;;;;;23.77;10.13;;;0.60;99.90;;;;;;4964363;28;20889;-69
2022/01/10 06:15:41;;;;;;;21.33;9.87;;;0.60;99.90;;;;;;4957478;28;20125;-72
2022/01/10 06:18:07;;;;;;;26.70;11.13;;;0.60;99.90;;;;;;4960933;28;20039;-69
2022/01/10 06:20:33;;;;;;;23.10;10.55;;;0.60;99.90;;;;;;4965404;28;20046;-69
2022/01/10 06:22:59;;;;;;;22.10;10.07;;;0.70;99.90;;;;;;4960419;28;20071;-69
2022/01/10 06:25:26;;;;;;;25.13;11.17;;;0.70;99.90;;;;;;4960768;28;20275;-70
2022/01/10 06:27:52;;;;;;;23.17;10.57;;;0.70;99.90;;;;;;4963793;28;20073;-69
2022/01/10 06:30:18;;;;;;;28.33;10.93;;;0.60;99.90;;;;;;4956348;28;20039;-69
2022/01/10 06:32:44;;;;;;;25.70;12.13;;;0.70;99.90;;;;;;4960525;28;20045;-70
2022/01/10 06:35:10;;;;;;;34.20;12.97;;;0.70;99.90;;;;;;4957904;28;20129;-69
2022/01/10 06:37:36;;;;;;;22.23;10.75;;;0.70;99.90;;;;;;4958109;28;20043;-69
2022/01/10 06:40:03;;;;;;;24.63;11.70;;;0.80;99.90;;;;;;4956803;28;20049;-69
2022/01/10 06:42:29;;;;;;;28.85;11.07;;;0.80;99.90;;;;;;4961556;28;20053;-69
2022/01/10 06:44:55;;;;;;;28.03;12.00;;;0.80;99.90;;;;;;4956535;28;20531;-70
2022/01/10 06:47:21;;;;;;;25.55;11.80;;;0.80;99.90;;;;;;4964314;28;20058;-69
2022/01/10 06:49:46;;;;;;;23.13;11.43;;;0.90;99.90;;;;;;4958730;28;20047;-69
2022/01/10 06:52:12;;;;;;;25.07;11.77;;;0.90;99.90;;;;;;4970599;28;20298;-70
2022/01/10 06:54:41;;;;;;;27.43;11.30;;;0.90;99.90;;;;;;4956295;28;20039;-69
2022/01/10 06:57:07;;;;;;;28.27;12.65;;;0.80;99.90;;;;;;4949582;28;20046;-69
2022/01/10 06:59:32;;;;;;;26.93;11.90;;;0.80;99.90;;;;;;4963469;28;20047;-69
2022/01/10 07:01:58;;;;;;;24.17;10.70;;;0.70;99.90;;;;;;4958944;28;20035;-70
2022/01/10 07:04:25;;;;;;;26.53;11.57;;;0.70;99.90;;;;;;4957727;28;20161;-69
2022/01/10 07:06:51;;;;;;;32.17;13.05;;;0.70;99.90;;;;;;4962786;28;20053;-70
2022/01/10 07:09:17;;;;;;;24.50;11.13;;;0.70;99.90;;;;;;4971392;28;20464;-69
2022/01/10 07:11:42;;;;;;;30.73;13.23;;;0.70;99.90;;;;;;4965237;28;20286;-69
2022/01/10 07:14:08;;;;;;;33.10;13.27;;;0.60;99.90;;;;;;4957351;28;20446;-71
2022/01/10 07:16:34;;;;;;;24.30;11.97;;;0.60;99.90;;;;;;4965307;28;20061;-70
2022/01/10 07:19:00;;;;;;;34.67;12.20;;;0.60;99.90;;;;;;4967721;28;20045;-70
2022/01/10 07:21:26;;;;;;;23.80;12.02;;;0.60;99.90;;;;;;4961884;28;20117;-70
2022/01/10 07:23:52;;;;;;;26.50;11.57;;;0.60;99.90;;;;;;4964187;28;20515;-70
2022/01/10 07:26:17;;;;;;;20.53;11.40;;;0.60;99.90;;;;;;4963342;28;20043;-71
2022/01/10 07:28:43;;;;;;;23.90;11.23;;;0.60;99.90;;;;;;4959820;28;20444;-70
2022/01/10 07:31:09;;;;;;;24.73;10.73;;;0.60;99.90;;;;;;4962447;28;20134;-72
2022/01/10 07:33:35;;;;;;;27.43;13.23;;;0.60;99.90;;;;;;4949169;28;20326;-69
2022/01/10 07:36:01;;;;;;;23.73;11.85;;;0.60;99.90;;;;;;4958462;28;20234;-69
2022/01/10 07:38:27;;;;;;;21.35;12.18;;;0.50;99.90;;;;;;4956890;28;20412;-70
2022/01/10 07:40:53;;;;;;;26.23;12.33;;;0.50;99.90;;;;;;4964653;28;20038;-69
2022/01/10 07:43:18;;;;;;;22.67;11.83;;;0.50;99.90;;;;;;4951258;28;20511;-71
2022/01/10 07:45:44;;;;;;;28.37;13.77;;;0.50;99.90;;;;;;4959412;28;20050;-71
2022/01/10 07:48:10;;;;;;;28.07;13.17;;;0.50;99.90;;;;;;4964602;28;20035;-70
2022/01/10 07:50:36;;;;;;;33.63;13.38;;;0.50;99.90;;;;;;4950971;28;20101;-69
2022/01/10 07:53:02;;;;;;;28.53;12.40;;;0.50;99.90;;;;;;4953560;28;20472;-69
2022/01/10 07:55:28;;;;;;;30.13;13.18;;;0.50;99.90;;;;;;4965661;28;20058;-70
2022/01/10 07:57:54;;;;;;;33.00;13.15;;;0.50;99.90;;;;;;4960798;28;20515;-70
2022/01/10 08:00:19;;;;;;;28.70;11.77;;;0.50;99.90;;;;;;4967776;28;20027;-71
2022/01/10 08:02:45;;;;;;;24.37;12.47;;;0.40;99.90;;;;;;4972315;28;20043;-69
2022/01/10 08:05:11;;;;;;;29.93;12.93;;;0.50;99.90;;;;;;4957808;28;20145;-70
2022/01/10 08:07:36;;;;;;;23.70;12.27;;;0.40;99.90;;;;;;4973876;23;20061;-69
2022/01/10 08:10:06;;;;;;;26.93;11.23;;;0.50;99.90;;;;;;4962578;28;20038;-69
2022/01/10 08:12:31;;;;;;;33.10;13.05;;;0.50;99.90;;;;;;4961866;28;20499;-71
2022/01/10 08:14:57;;;;;;;24.10;13.13;;;0.50;99.90;;;;;;4957116;28;20093;-69
2022/01/10 08:17:23;;;;;;;35.37;13.43;;;0.50;99.90;;;;;;4962908;28;20122;-70
2022/01/10 08:19:48;;;;;;;28.90;14.67;;;0.50;99.90;;;;;;4927116;28;20034;-69
2022/01/10 08:22:14;;;;;;;30.57;13.77;;;0.50;99.90;;;;;;4945104;28;20444;-69
2022/01/10 08:24:39;;;;;;;34.90;14.77;;;0.50;99.90;;;;;;4947926;28;20089;-69
2022/01/10 08:27:05;;;;;;;32.87;13.43;;;0.50;99.90;;;;;;4945414;28;20492;-70
2022/01/10 08:29:31;;;;;;;32.17;13.50;;;0.50;99.90;;;;;;4946615;28;20039;-69
2022/01/10 08:31:56;;;;;;;28.70;12.80;;;0.50;99.90;;;;;;4952916;28;20086;-69
2022/01/10 08:34:24;;;;;;;26.73;13.53;;;0.60;99.90;;;;;;4946380;28;20054;-69
2022/01/10 08:36:51;;;;;;;24.63;12.40;;;0.60;99.90;;;;;;4948306;28;20044;-69
2022/01/10 08:39:18;;;;;;;31.15;13.20;;;0.50;99.90;;;;;;4941443;28;20031;-69
2022/01/10 08:41:44;;;;;;;44.85;16.50;;;0.60;99.90;;;;;;4944262;28;20400;-69
2022/01/10 08:44:09;;;;;;;47.30;18.23;;;0.60;99.90;;;;;;4941573;28;20042;-69
2022/01/10 08:46:35;;;;;;;55.10;18.33;;;0.60;99.90;;;;;;4938619;28;20418;-69
2022/01/10 08:49:01;;;;;;;37.17;17.63;;;0.70;99.90;;;;;;4939916;28;20089;-69
2022/01/10 08:51:28;;;;;;;48.63;17.90;;;0.70;99.90;;;;;;4927684;28;20184;-69
2022/01/10 08:53:54;;;;;;;41.35;17.65;;;0.70;99.90;;;;;;4937690;28;20046;-69
2022/01/10 08:56:20;;;;;;;31.40;13.85;;;0.70;99.90;;;;;;4937979;28;20066;-69
2022/01/10 08:58:46;;;;;;;30.77;14.27;;;0.80;99.90;;;;;;4935986;28;20044;-69
2022/01/10 09:01:11;;;;;;;35.60;14.87;;;0.80;99.90;;;;;;4930926;28;20219;-69
2022/01/10 09:03:38;;;;;;;39.30;14.33;;;0.80;99.90;;;;;;4943094;28;20063;-69
2022/01/10 09:06:03;;;;;;;35.92;13.85;;;0.90;99.90;;;;;;4940515;28;20093;-69
2022/01/10 09:08:33;;;;;;;45.77;16.63;;;0.80;99.90;;;;;;4928873;28;20122;-69
2022/01/10 09:10:59;;;;;;;35.28;16.42;;;0.90;99.90;;;;;;4930741;28;20403;-69
2022/01/10 09:13:25;;;;;;;40.47;17.80;;;0.90;99.90;;;;;;4944991;28;20039;-69
2022/01/10 09:15:51;;;;;;;34.80;16.33;;;0.90;99.90;;;;;;4941884;28;20385;-69
2022/01/10 09:18:17;;;;;;;34.70;16.10;;;1.00;99.90;;;;;;4940654;28;20047;-69
2022/01/10 09:20:43;;;;;;;44.67;16.80;;;1.00;99.90;;;;;;4942630;28;20039;-69
2022/01/10 09:23:09;;;;;;;40.25;17.15;;;1.00;99.90;;;;;;4935154;28;20291;-69
2022/01/10 09:25:35;;;;;;;43.35;19.40;;;1.10;99.90;;;;;;4945952;28;20082;-69
2022/01/10 09:28:01;;;;;;;42.07;19.03;;;1.10;99.90;;;;;;4928329;29;20496;-69
2022/01/10 09:30:26;;;;;;;37.43;17.40;;;1.20;99.90;;;;;;4940011;28;20093;-70
2022/01/10 09:32:53;;;;;;;34.30;18.00;;;1.20;99.90;;;;;;4940080;28;20568;-70
2022/01/10 09:35:20;;;;;;;41.70;18.13;;;1.30;99.90;;;;;;4932418;28;20139;-69
2022/01/10 09:37:45;;;;;;;36.97;16.38;;;1.30;99.90;;;;;;4930619;28;20055;-70
2022/01/10 09:40:11;;;;;;;31.53;16.60;;;1.40;99.90;;;;;;4940912;28;20046;-70
2022/01/10 09:42:38;;;;;;;35.10;16.98;;;1.40;99.90;;;;;;4943950;28;20075;-69
2022/01/10 09:45:05;;;;;;;35.08;17.85;;;1.50;99.90;;;;;;4931504;28;20521;-70
2022/01/10 09:47:31;;;;;;;32.10;15.98;;;1.50;99.90;;;;;;4936935;28;20409;-69
2022/01/10 09:49:57;;;;;;;40.63;16.73;;;1.60;99.90;;;;;;4934878;28;20043;-69
2022/01/10 09:52:23;;;;;;;27.80;15.23;;;1.70;99.90;;;;;;4936693;28;20039;-70
2022/01/10 09:54:50;;;;;;;39.73;16.67;;;1.70;99.90;;;;;;4942388;28;20404;-70
2022/01/10 09:57:16;;;;;;;39.08;17.75;;;1.70;99.90;;;;;;4943319;28;20059;-70
2022/01/10 09:59:43;;;;;;;38.80;17.10;;;1.80;99.90;;;;;;4945304;28;20043;-70
2022/01/10 10:02:10;;;;;;;32.25;17.50;;;1.90;99.90;;;;;;4945069;28;20039;-70
2022/01/10 10:04:36;;;;;;;;;;;2.00;99.90;;;;;;4940115;28;20420;-69
2022/01/10 10:07:04;;;;;;;33.63;15.95;;;2.00;99.90;;;;;;4933351;28;20061;-69
2022/01/10 10:09:30;;;;;;;31.30;14.90;;;2.10;99.90;;;;;;4929596;28;20174;-69
2022/01/10 10:11:56;;;;;;;34.78;15.35;;;2.20;99.90;;;;;;4937972;28;20262;-70
2022/01/10 10:14:23;;;;;;;33.57;14.57;;;2.30;99.90;;;;;;4944126;28;20110;-70
2022/01/10 10:16:54;;;;;;;28.23;15.15;;;2.40;99.90;;;;;;4938566;28;20035;-70
2022/01/10 10:19:23;;;;;;;35.22;14.30;;;2.50;99.90;;;;;;4940830;28;20054;-70
2022/01/10 10:21:50;;;;;;;28.75;14.57;;;2.50;99.90;;;;;;4941561;28;20416;-70
2022/01/10 10:24:16;;;;;;;31.48;14.27;;;2.60;99.90;;;;;;4938358;28;20074;-70
2022/01/10 10:26:42;;;;;;;32.40;14.70;;;2.70;99.90;;;;;;4941088;28;20494;-70
2022/01/10 10:29:14;;;;;;;32.13;14.45;;;2.80;99.90;;;;;;4943706;28;20051;-71
2022/01/10 10:31:51;;;;;;;33.58;14.80;;;2.90;99.90;;;;;;4934923;28;20051;-70
2022/01/10 10:34:23;;;;;;;35.80;16.52;;;3.00;99.90;;;;;;4936733;28;20057;-70
2022/01/10 10:37:03;;;;;;;35.03;15.68;;;3.10;99.90;;;;;;4942531;28;20063;-70
2022/01/10 10:39:30;;;;;;;31.77;15.25;;;3.20;99.90;;;;;;4939829;28;20039;-70
2022/01/10 10:42:00;;;;;;;31.98;14.98;;;3.30;99.90;;;;;;4938557;28;20043;-70
2022/01/10 10:44:26;;;;;;;34.58;16.70;;;3.40;99.90;;;;;;4935639;28;20053;-70
2022/01/10 10:46:52;;;;;;;36.03;16.23;;;3.50;99.90;;;;;;4940664;28;20043;-70
2022/01/10 10:49:20;;;;;;;34.42;15.18;;;3.60;99.90;;;;;;4933025;28;20058;-70
2022/01/10 10:51:50;;;;;;;30.50;15.00;;;3.70;99.90;;;;;;4941299;28;20407;-70
2022/01/10 10:54:17;;;;;;;29.02;15.13;;;3.80;99.90;;;;;;4938375;28;20050;-70
2022/01/10 10:56:44;;;;;;;31.00;15.30;;;3.80;99.90;;;;;;4935223;28;20057;-70
2022/01/10 10:59:11;;;;;;;30.08;15.32;;;3.90;99.90;;;;;;4943625;28;20040;-70
2022/01/10 11:01:39;;;;;;;29.27;14.93;;;4.10;99.90;;;;;;4939442;28;20166;-70
2022/01/10 11:04:09;;;;;;;30.65;15.80;;;4.20;99.90;;;;;;4935911;28;20090;-70
2022/01/10 11:06:35;;;;;;;28.92;14.68;;;4.20;99.90;;;;;;4941116;28;20047;-70
2022/01/10 11:09:06;;;;;;;31.23;13.95;;;4.30;99.90;;;;;;4935527;28;20396;-70
2022/01/10 11:11:33;;;;;;;33.47;14.52;;;4.40;99.90;;;;;;4941470;28;20046;-70
2022/01/10 11:14:00;;;;;;;31.52;14.75;;;4.50;99.90;;;;;;4938422;28;20859;-70
2022/01/10 11:16:26;;;;;;;33.25;14.80;;;4.60;99.90;;;;;;4940485;28;20047;-70
2022/01/10 11:18:53;;;;;;;35.05;15.13;;;4.60;99.90;;;;;;4932840;28;20107;-70
2022/01/10 11:21:19;;;;;;;35.97;15.25;;;4.70;99.90;;;;;;4927424;28;20737;-70
2022/01/10 11:23:46;;;;;;;31.70;15.40;;;4.70;99.90;;;;;;4930459;28;20073;-70
2022/01/10 11:26:14;;;;;;;33.25;14.27;;;4.90;99.90;;;;;;4939538;28;20057;-70
2022/01/10 11:28:54;;;;;;;28.85;14.13;;;4.90;99.90;;;;;;4948244;28;20047;-70
2022/01/10 11:31:28;;;;;;;32.83;14.02;;;5.10;99.90;;;;;;4939084;28;20043;-70
2022/01/10 11:33:56;;;;;;;27.27;14.70;;;5.10;99.90;;;;;;4944695;28;20580;-70
2022/01/10 11:36:25;;;;;;;28.75;13.02;;;5.20;99.90;;;;;;4943621;28;20046;-71
2022/01/10 11:38:59;;;;;;;32.83;13.73;;;5.20;99.90;;;;;;4942705;28;20040;-70
2022/01/10 11:41:28;;;;;;;34.97;13.23;;;5.30;99.90;;;;;;4941269;28;20042;-70
2022/01/10 11:43:57;;;;;;;26.58;13.48;;;5.30;99.90;;;;;;4937993;28;20051;-70
2022/01/10 11:46:49;;;;;;;27.90;12.65;;;5.40;99.90;;;;;;4951955;28;20066;-72
2022/01/10 11:49:20;;;;;;;33.13;12.27;;;5.50;99.90;;;;;;4944170;28;20046;-77
2022/01/10 11:52:00;;;;;;;26.52;13.15;;;5.50;99.90;;;;;;4950374;28;20077;-70
2022/01/10 11:54:41;;;;;;;27.95;13.27;;;5.60;99.90;;;;;;4946055;28;20092;-70
2022/01/10 11:57:11;;;;;;;31.00;12.80;;;5.70;99.90;;;;;;4936871;28;20090;-70
2022/01/10 11:59:42;;;;;;;24.23;13.40;;;5.70;99.90;;;;;;4950317;28;20038;-70
2022/01/10 12:02:23;;;;;;;25.38;12.77;;;5.80;99.90;;;;;;4943283;28;20043;-70
2022/01/10 12:04:52;;;;;;;23.05;12.23;;;5.90;99.90;;;;;;4938076;28;20046;-70
2022/01/10 12:07:21;;;;;;;24.02;12.63;;;5.90;99.90;;;;;;4943412;28;20407;-70
2022/01/10 12:09:47;;;;;;;24.33;12.80;;;6.10;99.90;;;;;;4938460;28;20047;-70
2022/01/10 12:12:15;;;;;;;25.55;11.90;;;6.10;99.90;;;;;;4950590;28;20049;-70
2022/01/10 12:14:42;;;;;;;23.92;11.50;;;6.20;99.90;;;;;;4948428;28;20039;-70
2022/01/10 12:17:08;;;;;;;;;;;6.20;99.90;;;;;;4944772;28;20052;-70
2022/01/10 12:19:35;;;;;;;23.13;12.05;;;6.30;99.90;;;;;;4950508;28;20307;-71
2022/01/10 12:22:01;;;;;;;23.38;12.05;;;6.40;99.90;;;;;;4941439;28;20073;-70
2022/01/10 12:24:26;;;;;;;28.77;11.65;;;6.40;99.90;;;;;;4940425;28;20117;-71
2022/01/10 12:26:52;;;;;;;30.03;12.27;;;6.50;99.90;;;;;;4942788;28;20048;-71
2022/01/10 12:29:18;;;;;;;29.45;12.35;;;6.60;99.90;;;;;;4946507;28;20086;-70
2022/01/10 12:31:46;;;;;;;24.15;11.52;;;6.60;99.90;;;;;;4949408;28;20054;-70
2022/01/10 12:34:14;;;;;;;29.48;11.32;;;6.70;99.90;;;;;;4941167;28;20378;-71
2022/01/10 12:36:41;;;;;;;26.50;11.35;;;6.70;99.90;;;;;;4937722;28;20047;-71
2022/01/10 12:39:21;;;;;;;23.45;11.20;;;6.70;99.90;;;;;;4934809;28;20032;-70
2022/01/10 12:41:47;;;;;;;20.70;10.98;;;6.70;99.90;;;;;;4936538;28;20039;-70
2022/01/10 12:44:14;;;;;;;24.80;11.07;;;6.80;99.90;;;;;;4940057;28;20040;-71
2022/01/10 12:46:40;;;;;;;19.15;9.93;;;6.80;99.90;;;;;;4960024;28;20173;-71
2022/01/10 12:49:10;;;;;;;28.40;11.35;;;6.90;99.90;;;;;;4945474;28;20051;-71
2022/01/10 12:51:43;;;;;;;28.17;10.85;;;6.90;99.90;;;;;;4932497;28;20529;-71
2022/01/10 12:54:15;;;;;;;20.73;10.18;;;6.90;99.90;;;;;;4940574;28;20153;-71